Time;durP1;ratioP1;P1;durP2;ratioP2;P2;SDS_P1;SDS_P2;PMS_P1;PMS_P2;Temp;Humidity;BMP_temperature;BMP_pressure;BME280_temperature;BME280_humidity;BME280_pressure;Samples;Min_cycle;Max_cycle;Signal;HPM_P1;HPM_P2
2023/04/03 00:00:39;;;;;;;5.05;2.50;;;4.10;1.00;;;;;;7366819;19;20010;-68
2023/04/03 00:03:09;;;;;;;3.72;2.40;;;4.00;1.00;;;;;;7370202;19;20101;-68
2023/04/03 00:05:40;;;;;;;9.75;2.83;;;4.00;1.00;;;;;;7389836;19;20011;-68
2023/04/03 00:08:10;;;;;;;4.07;2.65;;;4.10;1.00;;;;;;7368252;19;20094;-68
2023/04/03 00:10:43;;;;;;;3.55;2.40;;;4.10;1.00;;;;;;7368475;19;20038;-68
2023/04/03 00:13:13;;;;;;;4.22;2.22;;;4.00;1.00;;;;;;7368858;19;20010;-68
2023/04/03 00:15:43;;;;;;;4.20;2.50;;;4.00;1.00;;;;;;7367086;19;20011;-69
2023/04/03 00:18:14;;;;;;;3.47;2.55;;;4.00;1.00;;;;;;7369830;19;20348;-69
2023/04/03 00:20:43;;;;;;;5.07;2.80;;;4.00;1.00;;;;;;7389112;19;20022;-69
2023/04/03 00:23:14;;;;;;;5.72;2.45;;;4.10;1.00;;;;;;7369675;19;20019;-68
2023/04/03 00:25:46;;;;;;;4.18;2.60;;;4.00;1.00;;;;;;7363856;19;20515;-69
2023/04/03 00:28:16;;;;;;;4.70;2.70;;;4.00;1.00;;;;;;7367646;19;20054;-68
2023/04/03 00:30:46;;;;;;;4.28;2.58;;;4.00;1.00;;;;;;7366671;19;20015;-68
2023/04/03 00:33:16;;;;;;;5.05;2.80;;;4.00;1.00;;;;;;7369459;19;20643;-68
2023/04/03 00:35:46;;;;;;;3.95;2.50;;;3.90;1.00;;;;;;7389072;19;20015;-69
2023/04/03 00:38:16;;;;;;;4.50;2.30;;;3.90;1.00;;;;;;7367710;19;20500;-69
2023/04/03 00:40:51;;;;;;;4.05;2.22;;;3.90;1.00;;;;;;7366136;19;20022;-69
2023/04/03 00:43:26;;;;;;;3.58;2.45;;;3.90;1.00;;;;;;7367301;19;20073;-69
2023/04/03 00:45:58;;;;;;;3.45;2.33;;;3.90;1.00;;;;;;7366497;19;20481;-69
2023/04/03 00:48:31;;;;;;;5.57;2.35;;;3.80;1.00;;;;;;7367385;19;20042;-69
2023/04/03 00:51:02;;;;;;;4.38;3.10;;;3.90;1.00;;;;;;7366309;19;20483;-68
2023/04/03 00:53:36;;;;;;;3.75;2.47;;;3.90;1.00;;;;;;7389223;19;20002;-68
2023/04/03 00:56:12;;;;;;;6.03;2.80;;;3.90;1.00;;;;;;7365570;19;20538;-69
2023/04/03 00:58:46;;;;;;;5.13;2.70;;;3.80;1.00;;;;;;7366988;19;20010;-69
2023/04/03 01:01:24;;;;;;;4.75;2.58;;;3.90;1.00;;;;;;7367231;19;20070;-68
2023/04/03 01:03:54;;;;;;;5.95;2.97;;;3.90;1.00;;;;;;7366292;19;20015;-68
2023/04/03 01:06:30;;;;;;;4.50;2.90;;;3.90;1.00;;;;;;7365863;19;20568;-69
2023/04/03 01:09:01;;;;;;;3.47;2.33;;;3.80;1.00;;;;;;7367801;19;20367;-69
2023/04/03 01:11:34;;;;;;;6.53;3.25;;;3.80;1.00;;;;;;7389220;19;20014;-69
2023/04/03 01:14:05;;;;;;;3.30;2.60;;;3.80;1.00;;;;;;7365972;19;20513;-69
2023/04/03 01:16:35;;;;;;;5.05;2.92;;;3.80;1.00;;;;;;7365523;19;20014;-68
2023/04/03 01:19:07;;;;;;;4.78;2.50;;;3.80;1.00;;;;;;7365001;19;20021;-70
2023/04/03 01:22:10;;;;;;;4.65;2.47;;;3.70;1.00;;;;;;7368191;19;20101;-68
2023/04/03 01:24:41;;;;;;;5.38;2.95;;;3.70;1.00;;;;;;7365631;19;20014;-68
2023/04/03 01:27:14;;;;;;;4.65;2.58;;;3.70;1.00;;;;;;7366800;19;20014;-68
2023/04/03 01:29:45;;;;;;;5.00;3.42;;;3.80;1.00;;;;;;7386239;19;20011;-69
2023/04/03 01:32:17;;;;;;;4.63;2.72;;;3.70;1.00;;;;;;7366016;19;20024;-68
2023/04/03 01:34:47;;;;;;;4.05;2.65;;;3.70;1.00;;;;;;7366204;19;20017;-69
2023/04/03 01:37:17;;;;;;;5.57;3.03;;;3.70;1.00;;;;;;7371292;19;20010;-69
2023/04/03 01:39:47;;;;;;;3.78;2.70;;;3.70;1.00;;;;;;7371646;19;20014;-67
2023/04/03 01:42:17;;;;;;;4.93;2.83;;;3.70;1.00;;;;;;7375197;19;20024;-68
2023/04/03 01:44:47;;;;;;;5.57;2.75;;;3.70;1.00;;;;;;7395149;19;20057;-68
2023/04/03 01:47:19;;;;;;;3.92;2.65;;;3.60;1.00;;;;;;7372024;19;20010;-69
2023/04/03 01:49:49;;;;;;;5.25;2.95;;;3.60;1.00;;;;;;7370954;19;20018;-68
2023/04/03 01:52:19;;;;;;;5.03;2.80;;;3.60;1.00;;;;;;7374326;19;20090;-68
2023/04/03 01:54:50;;;;;;;5.03;3.00;;;3.60;1.00;;;;;;7372114;19;20014;-68
2023/04/03 01:57:20;;;;;;;3.92;2.92;;;3.60;1.00;;;;;;7372507;19;20018;-69
2023/04/03 01:59:51;;;;;;;4.68;2.97;;;3.60;1.00;;;;;;7393888;19;20043;-69
2023/04/03 02:02:23;;;;;;;3.85;2.92;;;3.60;1.00;;;;;;7373180;19;20024;-70
2023/04/03 02:04:54;;;;;;;3.67;3.00;;;3.60;1.00;;;;;;7367572;19;20017;-68
2023/04/03 02:07:24;;;;;;;3.60;2.85;;;3.60;1.00;;;;;;7371184;19;20422;-69
2023/04/03 02:09:54;;;;;;;4.85;2.80;;;3.60;1.00;;;;;;7372514;19;20050;-69
2023/04/03 02:12:24;;;;;;;3.22;2.70;;;3.60;1.00;;;;;;7373217;19;20026;-68
2023/04/03 02:14:54;;;;;;;3.50;2.90;;;3.60;1.00;;;;;;7394335;19;20958;-69
2023/04/03 02:17:27;;;;;;;5.38;3.25;;;3.50;1.00;;;;;;7372414;19;20015;-69
2023/04/03 02:19:57;;;;;;;5.40;3.17;;;3.60;1.00;;;;;;7369836;19;20400;-68
2023/04/03 02:22:27;;;;;;;3.65;2.67;;;3.60;1.00;;;;;;7372964;19;20020;-68
2023/04/03 02:24:57;;;;;;;5.03;2.80;;;3.50;1.00;;;;;;7371640;19;20010;-68
2023/04/03 02:27:27;;;;;;;5.55;2.95;;;3.50;1.00;;;;;;7371408;19;20018;-67
2023/04/03 02:29:57;;;;;;;3.47;2.58;;;3.50;1.00;;;;;;7391188;19;20682;-69
2023/04/03 02:32:29;;;;;;;4.30;3.22;;;3.60;1.00;;;;;;7372219;19;20010;-69
2023/04/03 02:34:59;;;;;;;3.88;3.20;;;3.60;1.00;;;;;;7369287;19;20020;-69
2023/04/03 02:37:29;;;;;;;4.47;2.72;;;3.60;1.00;;;;;;7371693;19;20055;-67
2023/04/03 02:39:59;;;;;;;5.00;2.63;;;3.60;1.00;;;;;;7370020;19;20014;-68
2023/04/03 02:42:29;;;;;;;3.33;2.47;;;3.60;1.00;;;;;;7371832;19;20015;-68
2023/04/03 02:45:00;;;;;;;3.15;2.58;;;3.70;1.00;;;;;;7392778;19;20355;-69
2023/04/03 02:47:32;;;;;;;3.38;2.22;;;3.70;1.00;;;;;;7369537;19;20110;-69
2023/04/03 02:50:02;;;;;;;7.20;2.55;;;3.70;1.00;;;;;;7369729;19;20015;-68
2023/04/03 02:52:32;;;;;;;3.75;2.47;;;3.70;1.00;;;;;;7371395;19;20014;-70
2023/04/03 02:55:02;;;;;;;4.75;2.92;;;3.70;1.00;;;;;;7369328;19;20068;-69
2023/04/03 02:57:32;;;;;;;4.78;2.60;;;3.70;1.00;;;;;;7371739;19;20015;-69
2023/04/03 03:00:02;;;;;;;2.55;2.33;;;3.60;1.00;;;;;;7392391;19;20010;-68
2023/04/03 03:02:35;;;;;;;3.70;2.25;;;3.60;1.00;;;;;;7371813;19;20011;-69
2023/04/03 03:05:05;;;;;;;3.80;2.72;;;3.60;1.00;;;;;;7369092;19;20146;-69
2023/04/03 03:07:36;;;;;;;4.00;2.25;;;3.60;1.00;;;;;;7369951;19;20475;-69
2023/04/03 03:10:06;;;;;;;3.45;2.42;;;3.60;1.00;;;;;;7370484;19;20020;-68
2023/04/03 03:12:36;;;;;;;3.35;2.70;;;3.60;1.00;;;;;;7369515;19;20015;-69
2023/04/03 03:15:08;;;;;;;4.60;2.67;;;3.60;1.00;;;;;;7370102;19;20118;-68
2023/04/03 03:17:40;;;;;;;2.70;2.20;;;3.60;1.00;;;;;;7392822;19;20108;-68
2023/04/03 03:20:11;;;;;;;3.28;2.35;;;3.60;1.00;;;;;;7368732;19;20003;-68
2023/04/03 03:22:41;;;;;;;4.82;2.80;;;3.60;1.00;;;;;;7370188;19;20014;-67
2023/04/03 03:25:11;;;;;;;3.85;2.22;;;3.70;1.00;;;;;;7370626;19;20006;-68
2023/04/03 03:27:41;;;;;;;4.68;2.35;;;3.60;1.00;;;;;;7371214;19;20091;-68
2023/04/03 03:30:12;;;;;;;3.55;2.40;;;3.60;1.00;;;;;;7369722;19;20467;-68
2023/04/03 03:32:45;;;;;;;4.00;2.75;;;3.60;1.00;;;;;;7391221;19;20014;-68
2023/04/03 03:35:15;;;;;;;3.72;2.80;;;3.60;1.00;;;;;;7368221;19;20618;-68
2023/04/03 03:37:45;;;;;;;5.63;2.92;;;3.70;1.00;;;;;;7374137;19;20082;-70
2023/04/03 03:40:15;;;;;;;3.92;2.50;;;3.70;1.00;;;;;;7396000;19;20025;-68
2023/04/03 03:42:46;;;;;;;4.15;2.90;;;3.70;1.00;;;;;;7388397;19;20014;-69
2023/04/03 03:45:16;;;;;;;3.38;2.53;;;3.70;1.00;;;;;;7377171;19;20015;-69
2023/04/03 03:47:49;;;;;;;3.42;2.30;;;3.80;1.00;;;;;;7392975;19;20258;-69
2023/04/03 03:50:19;;;;;;;4.68;2.55;;;3.70;1.00;;;;;;7374626;19;20014;-69
2023/04/03 03:52:49;;;;;;;5.22;2.28;;;3.80;1.00;;;;;;7370036;19;20488;-69
2023/04/03 03:55:19;;;;;;;3.22;2.55;;;3.80;1.00;;;;;;7368360;19;20462;-69
2023/04/03 03:57:49;;;;;;;3.33;2.42;;;3.80;1.00;;;;;;7370220;19;20007;-68
2023/04/03 04:00:19;;;;;;;3.63;2.70;;;3.80;1.00;;;;;;7368405;19;20022;-67
2023/04/03 04:02:52;;;;;;;3.22;2.50;;;3.80;1.00;;;;;;7392012;19;20006;-68
2023/04/03 04:05:22;;;;;;;5.78;2.22;;;3.80;1.00;;;;;;7367206;19;20006;-69
2023/04/03 04:07:52;;;;;;;4.35;2.63;;;3.80;1.00;;;;;;7367918;19;20488;-68
2023/04/03 04:10:22;;;;;;;4.05;2.47;;;3.80;1.00;;;;;;7367785;19;20014;-68
2023/04/03 04:12:52;;;;;;;3.75;2.45;;;3.80;1.00;;;;;;7367924;19;20075;-69
2023/04/03 04:15:22;;;;;;;6.25;2.60;;;3.80;1.00;;;;;;7367106;19;20438;-69
2023/04/03 04:17:55;;;;;;;4.65;3.10;;;3.80;1.00;;;;;;7390626;19;20021;-69
2023/04/03 04:20:25;;;;;;;6.10;2.92;;;3.80;1.00;;;;;;7366217;19;20411;-69
2023/04/03 04:22:55;;;;;;;6.20;3.30;;;3.80;1.00;;;;;;7369279;19;20014;-68
2023/04/03 04:25:25;;;;;;;3.40;2.42;;;3.80;1.00;;;;;;7366390;19;20035;-68
2023/04/03 04:27:55;;;;;;;2.90;2.38;;;3.80;1.00;;;;;;7367737;19;20015;-68
2023/04/03 04:30:26;;;;;;;4.90;2.60;;;3.80;1.00;;;;;;7367043;19;20023;-69
2023/04/03 04:32:58;;;;;;;8.25;2.63;;;3.80;1.00;;;;;;7389481;19;20363;-69
2023/04/03 04:35:28;;;;;;;4.38;2.40;;;3.90;1.00;;;;;;7366630;19;20034;-69
2023/04/03 04:37:58;;;;;;;4.47;2.85;;;3.90;1.00;;;;;;7368048;19;20018;-69
2023/04/03 04:40:28;;;;;;;4.25;2.65;;;3.90;1.00;;;;;;7366790;19;20043;-68
2023/04/03 04:42:58;;;;;;;4.18;2.70;;;3.90;1.00;;;;;;7367827;19;20015;-68
2023/04/03 04:45:28;;;;;;;4.97;2.70;;;3.90;1.00;;;;;;7365874;19;20533;-69
2023/04/03 04:48:00;;;;;;;4.05;2.75;;;3.90;1.00;;;;;;7389663;19;20010;-69
2023/04/03 04:50:30;;;;;;;4.68;2.90;;;3.80;1.00;;;;;;7366861;19;20039;-69
2023/04/03 04:53:00;;;;;;;4.60;2.70;;;3.80;1.00;;;;;;7365765;19;20014;-69
2023/04/03 04:55:30;;;;;;;4.85;2.65;;;3.80;1.00;;;;;;7365728;19;20018;-68
2023/04/03 04:58:00;;;;;;;3.45;2.58;;;3.80;1.00;;;;;;7368889;19;20027;-69
2023/04/03 05:00:30;;;;;;;3.15;2.40;;;3.80;1.00;;;;;;7365091;19;20015;-69
2023/04/03 05:03:02;;;;;;;4.93;2.50;;;3.70;1.00;;;;;;7389435;19;20212;-69
2023/04/03 05:05:32;;;;;;;5.47;2.80;;;3.70;1.00;;;;;;7365843;19;20007;-68
2023/04/03 05:08:02;;;;;;;4.80;2.40;;;3.60;1.00;;;;;;7366482;19;20007;-69
2023/04/03 05:10:32;;;;;;;4.53;2.50;;;3.50;1.00;;;;;;7366692;19;20746;-69
2023/04/03 05:13:02;;;;;;;3.67;2.65;;;3.50;1.00;;;;;;7373165;19;20091;-69
2023/04/03 05:15:32;;;;;;;4.57;2.50;;;3.50;1.00;;;;;;7370339;19;20010;-69
2023/04/03 05:18:05;;;;;;;4.43;2.47;;;3.50;1.00;;;;;;7397138;19;20018;-68
2023/04/03 05:20:36;;;;;;;3.72;2.80;;;3.40;1.00;;;;;;7371867;19;20074;-68
2023/04/03 05:23:07;;;;;;;6.10;2.70;;;3.40;1.00;;;;;;7374930;19;20533;-68
2023/04/03 05:25:36;;;;;;;3.83;2.47;;;3.50;1.00;;;;;;7371447;19;20035;-68
2023/04/03 05:28:07;;;;;;;4.53;2.53;;;3.40;1.00;;;;;;7374390;19;20021;-68
2023/04/03 05:30:37;;;;;;;4.60;2.60;;;3.40;1.00;;;;;;7372466;19;20011;-68
2023/04/03 05:33:10;;;;;;;4.93;2.70;;;3.40;1.00;;;;;;7373758;19;20011;-69
2023/04/03 05:35:41;;;;;;;5.40;2.45;;;3.30;1.00;;;;;;7394130;19;20018;-69
2023/04/03 05:38:11;;;;;;;2.63;2.10;;;3.30;1.00;;;;;;7375136;19;20010;-69
2023/04/03 05:40:41;;;;;;;3.40;2.50;;;3.30;1.00;;;;;;7372802;19;20016;-68
2023/04/03 05:43:11;;;;;;;4.43;2.72;;;3.30;1.00;;;;;;7374171;19;20006;-69
2023/04/03 05:45:41;;;;;;;3.20;2.28;;;3.20;1.00;;;;;;7370921;19;20070;-69
2023/04/03 05:48:17;;;;;;;3.67;2.55;;;3.30;1.00;;;;;;7374388;19;20043;-69
2023/04/03 05:50:48;;;;;;;3.55;2.70;;;3.40;1.00;;;;;;7392773;19;20022;-69
2023/04/03 05:53:23;;;;;;;4.63;2.83;;;3.40;1.00;;;;;;7371287;19;20617;-69
2023/04/03 05:55:53;;;;;;;2.80;2.17;;;3.40;1.00;;;;;;7371004;19;20043;-69
2023/04/03 05:58:23;;;;;;;5.03;3.03;;;3.40;1.00;;;;;;7372214;19;20011;-69
2023/04/03 06:00:53;;;;;;;3.83;2.65;;;3.40;1.00;;;;;;7370663;19;20090;-68
2023/04/03 06:03:26;;;;;;;6.82;2.90;;;3.40;1.00;;;;;;7371474;19;20108;-69
2023/04/03 06:05:56;;;;;;;4.70;3.08;;;3.40;1.00;;;;;;7394273;19;20018;-69
2023/04/03 06:08:26;;;;;;;2.63;2.30;;;3.50;1.00;;;;;;7372715;19;20002;-69
2023/04/03 06:10:56;;;;;;;3.22;2.33;;;3.50;1.00;;;;;;7370827;19;20010;-69
2023/04/03 06:13:26;;;;;;;4.40;2.80;;;3.50;1.00;;;;;;7368616;19;20090;-69
2023/04/03 06:15:56;;;;;;;7.28;2.90;;;3.60;1.00;;;;;;7370559;19;20034;-69
2023/04/03 06:18:28;;;;;;;4.85;2.67;;;3.60;1.00;;;;;;7371710;19;20035;-68
2023/04/03 06:20:58;;;;;;;5.45;2.60;;;3.60;1.00;;;;;;7391847;19;20014;-68
2023/04/03 06:23:28;;;;;;;4.80;2.80;;;3.60;1.00;;;;;;7369672;19;20025;-68
2023/04/03 06:25:58;;;;;;;4.57;2.50;;;3.60;1.00;;;;;;7370319;19;20043;-69
2023/04/03 06:28:28;;;;;;;5.22;2.88;;;3.60;1.00;;;;;;7370357;19;20399;-68
2023/04/03 06:30:58;;;;;;;3.38;2.58;;;3.60;1.00;;;;;;7369659;19;20021;-69
2023/04/03 06:33:30;;;;;;;6.35;2.60;;;3.60;1.00;;;;;;7370483;19;20150;-69
2023/04/03 06:36:01;;;;;;;4.57;2.65;;;3.80;1.00;;;;;;7393015;19;20010;-68
2023/04/03 06:38:31;;;;;;;9.35;2.60;;;3.80;1.00;;;;;;7371912;19;20003;-69
2023/04/03 06:41:01;;;;;;;4.03;2.70;;;3.80;1.00;;;;;;7369564;19;20010;-69
2023/04/03 06:43:31;;;;;;;6.82;2.72;;;4.00;1.00;;;;;;7369367;19;20010;-69
2023/04/03 06:46:03;;;;;;;6.95;2.90;;;4.00;1.00;;;;;;7370178;19;20015;-69
2023/04/03 06:48:36;;;;;;;4.15;3.30;;;4.00;1.00;;;;;;7370948;19;20519;-68
2023/04/03 06:51:06;;;;;;;4.53;3.05;;;3.80;1.00;;;;;;7370020;19;20014;-69
2023/04/03 06:53:36;;;;;;;6.93;2.92;;;3.90;1.00;;;;;;7391068;19;20357;-69
2023/04/03 06:56:07;;;;;;;8.32;3.40;;;3.80;1.00;;;;;;7368762;19;20013;-68
2023/04/03 06:58:37;;;;;;;6.47;3.50;;;3.80;1.00;;;;;;7369913;19;20021;-69
2023/04/03 07:01:07;;;;;;;6.50;3.25;;;3.80;1.00;;;;;;7369541;19;20038;-68
2023/04/03 07:03:39;;;;;;;6.38;3.30;;;3.90;1.00;;;;;;7370159;19;20015;-68
2023/04/03 07:06:12;;;;;;;6.57;3.08;;;3.90;1.00;;;;;;7372369;19;20017;-69
2023/04/03 07:08:42;;;;;;;4.30;3.15;;;4.00;1.00;;;;;;7390672;19;20474;-67
2023/04/03 07:11:14;;;;;;;9.20;3.70;;;4.00;1.00;;;;;;7370771;19;20514;-69
2023/04/03 07:13:44;;;;;;;4.97;3.53;;;4.20;1.00;;;;;;7386177;19;20064;-68
2023/04/03 07:16:14;;;;;;;6.53;3.95;;;4.10;1.00;;;;;;7387960;19;20006;-68
2023/04/03 07:18:47;;;;;;;6.63;3.40;;;4.20;1.00;;;;;;7380928;19;20010;-64
2023/04/03 07:21:17;;;;;;;4.97;3.15;;;4.30;1.00;;;;;;7372187;19;20123;-67
2023/04/03 07:23:47;;;;;;;4.88;3.10;;;4.20;1.00;;;;;;7393639;19;20011;-66
2023/04/03 07:26:18;;;;;;;6.72;3.20;;;4.30;1.00;;;;;;7369853;19;20010;-69
2023/04/03 07:28:48;;;;;;;8.20;3.60;;;4.40;1.00;;;;;;7368997;19;20062;-69
2023/04/03 07:31:19;;;;;;;5.72;3.00;;;4.50;1.00;;;;;;7370886;19;20034;-69
2023/04/03 07:33:52;;;;;;;6.13;3.28;;;4.40;1.00;;;;;;7367925;19;20018;-70
2023/04/03 07:36:24;;;;;;;6.43;3.33;;;4.60;1.00;;;;;;7368040;19;20050;-69
2023/04/03 07:38:54;;;;;;;6.38;3.22;;;4.70;1.00;;;;;;7391012;19;20103;-69
2023/04/03 07:41:24;;;;;;;6.22;3.10;;;4.80;1.00;;;;;;7368766;19;20010;-69
2023/04/03 07:43:54;;;;;;;7.55;3.17;;;4.60;1.00;;;;;;7368850;19;20401;-70
2023/04/03 07:46:24;;;;;;;7.05;3.47;;;4.70;1.00;;;;;;7366977;19;20070;-69
2023/04/03 07:48:58;;;;;;;4.88;3.80;;;4.80;1.00;;;;;;7368078;19;20014;-69
2023/04/03 07:51:29;;;;;;;4.72;3.28;;;4.80;1.00;;;;;;7368082;19;20014;-68
2023/04/03 07:53:59;;;;;;;7.57;3.33;;;5.00;1.00;;;;;;7390735;19;20014;-68
2023/04/03 07:56:29;;;;;;;6.43;3.60;;;5.00;1.00;;;;;;7367305;19;20007;-69
2023/04/03 07:58:59;;;;;;;4.55;3.20;;;4.70;1.00;;;;;;7368361;19;20091;-69
2023/04/03 08:01:32;;;;;;;5.43;3.13;;;4.80;1.00;;;;;;7367479;19;20558;-69
2023/04/03 08:04:05;;;;;;;4.97;3.25;;;4.90;1.00;;;;;;7366586;19;20007;-67
2023/04/03 08:06:36;;;;;;;7.78;4.22;;;5.10;1.00;;;;;;7366654;19;20596;-68
2023/04/03 08:09:16;;;;;;;5.57;2.85;;;5.10;1.00;;;;;;7368466;19;20010;-68
2023/04/03 08:11:46;;;;;;;5.85;3.22;;;5.00;1.00;;;;;;7390926;19;20043;-68
2023/04/03 08:14:18;;;;;;;5.20;3.35;;;5.20;1.00;;;;;;7366510;19;20007;-68
2023/04/03 08:16:49;;;;;;;10.23;3.40;;;5.20;1.00;;;;;;7367005;19;20014;-69
2023/04/03 08:19:22;;;;;;;3.70;2.78;;;5.30;1.00;;;;;;7364517;19;20035;-69
2023/04/03 08:21:56;;;;;;;5.95;3.00;;;5.60;1.00;;;;;;7369360;19;20026;-69
2023/04/03 08:24:26;;;;;;;6.28;3.22;;;5.60;1.00;;;;;;7365477;19;20029;-68
2023/04/03 08:26:56;;;;;;;4.22;2.83;;;5.90;1.00;;;;;;7389670;19;20039;-67
2023/04/03 08:29:27;;;;;;;6.30;3.88;;;5.60;1.00;;;;;;7365859;19;20006;-69
2023/04/03 08:31:57;;;;;;;3.70;2.75;;;5.60;1.00;;;;;;7367483;19;20010;-69
2023/04/03 08:34:29;;;;;;;6.18;3.20;;;5.80;1.00;;;;;;7364046;19;20035;-68
2023/04/03 08:36:59;;;;;;;7.43;3.47;;;5.70;1.00;;;;;;7368007;19;20007;-69
2023/04/03 08:39:29;;;;;;;8.75;3.15;;;5.60;1.00;;;;;;7365740;19;20014;-68
2023/04/03 08:42:02;;;;;;;5.85;3.17;;;6.00;1.00;;;;;;7390721;19;20009;-68
2023/04/03 08:44:41;;;;;;;6.75;3.80;;;5.90;1.00;;;;;;7365841;19;20010;-68
2023/04/03 08:47:20;;;;;;;6.00;2.70;;;6.10;1.00;;;;;;7371706;19;20081;-68
2023/04/03 08:49:55;;;;;;;7.55;2.90;;;6.00;1.00;;;;;;7372611;19;20086;-68
2023/04/03 08:52:34;;;;;;;5.80;2.50;;;6.00;1.00;;;;;;7374965;19;20102;-69
2023/04/03 08:55:07;;;;;;;7.88;3.25;;;6.40;1.00;;;;;;7372427;19;20374;-69
2023/04/03 08:57:41;;;;;;;5.15;3.50;;;5.90;1.00;;;;;;7374095;19;20032;-69
2023/04/03 09:00:21;;;;;;;3.25;2.88;;;6.00;1.00;;;;;;7371913;19;20020;-69
2023/04/03 09:02:52;;;;;;;6.35;3.22;;;6.10;1.00;;;;;;7396629;19;20017;-69
2023/04/03 09:05:38;;;;;;;6.60;3.03;;;6.00;1.00;;;;;;7371383;19;20077;-68
2023/04/03 09:08:17;;;;;;;4.85;2.92;;;6.20;1.00;;;;;;7373473;19;20066;-68
2023/04/03 09:10:47;;;;;;;6.53;2.85;;;6.20;1.00;;;;;;7373931;19;20018;-68
2023/04/03 09:13:29;;;;;;;4.30;2.70;;;6.30;1.00;;;;;;7374802;19;20466;-69
2023/04/03 09:15:59;;;;;;;6.22;3.22;;;6.20;1.00;;;;;;7369561;19;20015;-68
2023/04/03 09:18:33;;;;;;;4.85;2.67;;;6.10;1.00;;;;;;7373595;19;20018;-69
2023/04/03 09:21:16;;;;;;;6.22;2.70;;;6.50;1.00;;;;;;7392770;19;20022;-69
2023/04/03 09:23:48;;;;;;;3.92;2.53;;;6.50;1.00;;;;;;7373804;19;20073;-68
2023/04/03 09:26:22;;;;;;;6.28;2.90;;;6.50;1.00;;;;;;7372494;19;20505;-69
2023/04/03 09:28:52;;;;;;;5.03;2.43;;;6.40;1.00;;;;;;7371990;19;20134;-68
2023/04/03 09:31:25;;;;;;;6.10;2.20;;;6.60;1.00;;;;;;7371651;19;20130;-68
2023/04/03 09:34:04;;;;;;;6.50;2.50;;;6.90;1.00;;;;;;7372275;19;20021;-68
2023/04/03 09:36:48;;;;;;;4.05;2.90;;;6.80;1.00;;;;;;7369224;19;20362;-69
2023/04/03 09:39:20;;;;;;;4.57;2.83;;;6.70;1.00;;;;;;7372764;19;20027;-69
2023/04/03 09:42:02;;;;;;;4.55;2.60;;;6.80;1.00;;;;;;7395245;19;20396;-68
2023/04/03 09:44:35;;;;;;;3.00;1.92;;;6.70;1.00;;;;;;7371768;19;20011;-69
2023/04/03 09:47:21;;;;;;;3.47;1.95;;;7.10;1.00;;;;;;7371740;19;20786;-68
2023/04/03 09:49:51;;;;;;;4.93;2.50;;;6.90;1.00;;;;;;7371127;19;20054;-69
2023/04/03 09:52:29;;;;;;;3.22;2.38;;;6.60;1.00;;;;;;7373196;19;20007;-69
2023/04/03 09:55:10;;;;;;;4.65;1.98;;;6.80;1.00;;;;;;7370374;19;20467;-69
2023/04/03 09:57:40;;;;;;;3.45;2.45;;;6.50;1.00;;;;;;7370763;19;20376;-69
2023/04/03 10:00:24;;;;;;;1.98;1.75;;;6.40;1.00;;;;;;7370736;19;21311;-69
2023/04/03 10:02:56;;;;;;;5.05;2.13;;;6.40;1.00;;;;;;7395857;19;20521;-68
2023/04/03 10:05:34;;;;;;;3.55;1.75;;;6.60;1.00;;;;;;7370357;19;20014;-68
2023/04/03 10:08:23;;;;;;;5.22;2.28;;;6.60;1.00;;;;;;7371807;19;20494;-69
2023/04/03 10:11:10;;;;;;;5.13;1.95;;;6.40;1.00;;;;;;7370855;19;20022;-68
2023/04/03 10:13:53;;;;;;;3.67;1.92;;;6.80;1.00;;;;;;7370822;19;20014;-68
2023/04/03 10:16:29;;;;;;;4.32;1.85;;;6.70;1.00;;;;;;7368553;19;20018;-68
2023/04/03 10:19:28;;;;;;;2.85;2.38;;;6.50;1.00;;;;;;7370012;19;20010;-69
2023/04/03 10:22:04;;;;;;;3.67;2.10;;;6.60;1.00;;;;;;7371757;19;20010;-68
2023/04/03 10:24:46;;;;;;;3.28;1.83;;;6.50;1.00;;;;;;7368318;19;20014;-68
2023/04/03 10:27:25;;;;;;;2.95;2.10;;;6.70;1.00;;;;;;7371840;19;20013;-69
2023/04/03 10:30:03;;;;;;;2.42;1.80;;;7.30;1.00;;;;;;7391280;19;20019;-68
2023/04/03 10:32:44;;;;;;;5.38;1.70;;;7.20;1.00;;;;;;7371949;19;20010;-69
2023/04/03 10:35:22;;;;;;;2.60;1.63;;;7.30;1.00;;;;;;7368391;19;20014;-68
2023/04/03 10:38:03;;;;;;;4.30;1.80;;;7.10;1.00;;;;;;7370548;19;20010;-68
2023/04/03 10:40:44;;;;;;;3.22;1.80;;;7.10;1.00;;;;;;7368710;19;20039;-69
2023/04/03 10:43:23;;;;;;;2.40;1.40;;;7.20;1.00;;;;;;7370878;19;20010;-69
2023/04/03 10:45:59;;;;;;;5.68;2.22;;;6.90;1.00;;;;;;7369123;19;20015;-69
2023/04/03 10:48:51;;;;;;;3.58;1.90;;;6.80;1.00;;;;;;7370514;19;20015;-69
2023/04/03 10:51:27;;;;;;;3.80;1.75;;;7.00;1.00;;;;;;7370531;19;20018;-69
2023/04/03 10:54:02;;;;;;;2.88;1.70;;;7.10;1.00;;;;;;7389987;19;20014;-68
2023/04/03 10:56:41;;;;;;;1.88;1.52;;;7.10;1.00;;;;;;7369168;19;20017;-69
2023/04/03 10:59:23;;;;;;;2.25;1.33;;;6.90;1.00;;;;;;7370255;19;20006;-69
2023/04/03 11:01:57;;;;;;;4.57;1.35;;;6.60;1.00;;;;;;7370199;19;20011;-69
2023/04/03 11:04:31;;;;;;;3.70;1.70;;;6.80;1.00;;;;;;7368257;19;20374;-70
2023/04/03 11:07:07;;;;;;;3.42;1.88;;;6.80;1.00;;;;;;7369732;19;20020;-68
2023/04/03 11:09:40;;;;;;;2.97;1.30;;;6.80;1.00;;;;;;7368063;19;20069;-69
2023/04/03 11:12:18;;;;;;;2.17;1.40;;;6.60;1.00;;;;;;7371665;19;20006;-68
2023/04/03 11:14:50;;;;;;;2.78;1.90;;;6.80;1.00;;;;;;7390800;19;20030;-69
2023/04/03 11:17:30;;;;;;;3.88;2.03;;;6.90;1.00;;;;;;7367410;19;20011;-68
2023/04/03 11:20:06;;;;;;;3.63;1.38;;;6.90;1.00;;;;;;7367064;19;20041;-69
2023/04/03 11:22:40;;;;;;;2.58;1.80;;;6.70;1.00;;;;;;7370401;19;20759;-69
2023/04/03 11:25:22;;;;;;;2.45;1.55;;;6.60;1.00;;;;;;7367421;19;20010;-69
2023/04/03 11:28:01;;;;;;;6.40;2.10;;;6.20;1.00;;;;;;7369588;19;20015;-68
2023/04/03 11:30:37;;;;;;;4.05;1.60;;;6.40;1.00;;;;;;7367294;19;20014;-69
2023/04/03 11:33:29;;;;;;;2.97;2.00;;;6.40;1.00;;;;;;7370278;19;20025;-69
2023/04/03 11:36:03;;;;;;;3.80;1.80;;;6.60;1.00;;;;;;7389312;19;20014;-69
2023/04/03 11:38:50;;;;;;;4.35;1.70;;;6.60;1.00;;;;;;7370514;19;20014;-68
2023/04/03 11:41:29;;;;;;;3.58;1.95;;;6.70;1.00;;;;;;7368000;19;20484;-68
2023/04/03 11:44:03;;;;;;;2.78;1.73;;;6.70;1.00;;;;;;7366735;19;20014;-68
2023/04/03 11:46:55;;;;;;;3.80;1.52;;;6.70;1.00;;;;;;7367682;19;20014;-69
2023/04/03 11:50:09;;;;;;;3.70;2.10;;;6.60;1.00;;;;;;7366499;19;20014;-68
2023/04/03 11:53:01;;;;;;;3.03;1.50;;;6.40;1.00;;;;;;7365843;19;20078;-69
2023/04/03 11:55:55;;;;;;;3.13;1.75;;;6.20;1.00;;;;;;7365809;19;20014;-70
2023/04/03 11:58:27;;;;;;;3.13;1.90;;;6.40;1.00;;;;;;7368559;19;20232;-68
2023/04/03 12:01:11;;;;;;;6.05;2.15;;;6.70;1.00;;;;;;7366704;19;20396;-68
2023/04/03 12:04:01;;;;;;;4.32;2.00;;;6.60;1.00;;;;;;7368699;19;20015;-69
2023/04/03 12:07:04;;;;;;;7.38;2.00;;;6.60;1.00;;;;;;7369255;19;20010;-69
2023/04/03 12:10:00;;;;;;;3.78;1.92;;;6.80;1.00;;;;;;7367735;19;20010;-69
2023/04/03 12:12:39;;;;;;;4.55;2.03;;;6.70;1.00;;;;;;7366758;19;20348;-69
2023/04/03 12:15:27;;;;;;;5.20;1.67;;;6.90;1.00;;;;;;7367493;19;20471;-70
2023/04/03 12:17:59;;;;;;;3.45;1.98;;;7.00;1.00;;;;;;7388401;19;20479;-69
2023/04/03 12:20:58;;;;;;;4.95;3.75;;;6.90;1.00;;;;;;7365931;19;20014;-69
2023/04/03 12:23:31;;;;;;;2.35;1.92;;;7.00;1.00;;;;;;7368681;19;20371;-68
2023/04/03 12:26:22;;;;;;;3.95;1.63;;;6.90;1.00;;;;;;7366869;19;20041;-68
2023/04/03 12:28:55;;;;;;;3.53;2.13;;;6.80;1.00;;;;;;7366290;19;20478;-69
2023/04/03 12:31:34;;;;;;;6.03;2.95;;;6.90;1.00;;;;;;7366532;19;20010;-68
2023/04/03 12:34:27;;;;;;;3.25;2.10;;;7.10;1.00;;;;;;7365924;19;20011;-68
2023/04/03 12:37:04;;;;;;;2.97;1.70;;;7.20;1.00;;;;;;7367286;19;20014;-68
2023/04/03 12:39:51;;;;;;;2.60;1.70;;;7.10;1.00;;;;;;7366045;19;20058;-70
2023/04/03 12:42:43;;;;;;;3.47;1.90;;;6.90;1.00;;;;;;7366921;19;20014;-69
2023/04/03 12:45:20;;;;;;;6.30;2.00;;;7.20;1.00;;;;;;7362700;19;20040;-70
2023/04/03 12:47:53;;;;;;;2.80;1.85;;;7.50;1.00;;;;;;7389421;19;20018;-68
2023/04/03 12:50:29;;;;;;;6.35;2.30;;;7.10;1.00;;;;;;7365876;19;20014;-68
2023/04/03 12:53:04;;;;;;;3.58;2.08;;;7.10;1.00;;;;;;7366276;19;20007;-69
2023/04/03 12:55:33;;;;;;;2.45;1.40;;;7.20;1.00;;;;;;7364439;19;20499;-69
2023/04/03 12:58:17;;;;;;;3.40;1.70;;;7.10;1.00;;;;;;7366573;19;20027;-69
2023/04/03 13:00:47;;;;;;;3.05;1.60;;;7.10;1.00;;;;;;7365488;19;20043;-70
2023/04/03 13:03:26;;;;;;;5.50;1.65;;;7.30;1.00;;;;;;7368194;19;20027;-69
2023/04/03 13:06:03;;;;;;;4.30;1.73;;;7.30;1.00;;;;;;7387964;19;20018;-69
2023/04/03 13:08:33;;;;;;;3.03;1.40;;;7.20;1.00;;;;;;7367215;19;20018;-68
2023/04/03 13:11:06;;;;;;;4.18;1.95;;;7.30;1.00;;;;;;7366500;19;20010;-69
2023/04/03 13:13:37;;;;;;;5.75;1.75;;;7.30;1.00;;;;;;7365726;19;20014;-68
2023/04/03 13:16:13;;;;;;;3.13;1.55;;;7.40;1.00;;;;;;7365283;19;20019;-68
2023/04/03 13:18:44;;;;;;;3.08;1.88;;;7.50;1.00;;;;;;7364239;19;20014;-69
2023/04/03 13:21:23;;;;;;;3.38;2.03;;;7.70;1.00;;;;;;7367618;19;20015;-69
2023/04/03 13:23:56;;;;;;;3.83;2.40;;;7.70;1.00;;;;;;7387555;19;20098;-69
2023/04/03 13:26:41;;;;;;;4.78;2.65;;;7.40;1.00;;;;;;7366138;19;20580;-69
2023/04/03 13:29:25;;;;;;;3.65;2.30;;;7.50;1.00;;;;;;7364382;19;20030;-67
2023/04/03 13:32:02;;;;;;;2.90;2.10;;;7.40;1.00;;;;;;7366522;19;20053;-69
2023/04/03 13:34:40;;;;;;;3.58;2.10;;;7.30;1.00;;;;;;7370099;19;20018;-68
2023/04/03 13:37:22;;;;;;;3.17;1.70;;;7.40;1.00;;;;;;7373402;19;20036;-69
2023/04/03 13:40:12;;;;;;;3.83;2.15;;;7.40;1.00;;;;;;7371470;19;20363;-68
2023/04/03 13:42:44;;;;;;;3.63;1.98;;;7.50;1.00;;;;;;7370855;19;20517;-68